createdAt,value
2022-09-14T00:00:31.427Z,71.36
2022-09-14T00:03:55.208Z,71.38
2022-09-14T00:06:56.743Z,71.34
2022-09-14T00:09:58.239Z,71.37
2022-09-14T00:12:59.913Z,71.31
2022-09-14T00:16:04.873Z,71.29
2022-09-14T00:19:14.627Z,71.37
2022-09-14T00:22:16.087Z,71.39
2022-09-14T00:25:17.731Z,71.42
2022-09-14T00:28:19.183Z,71.26
2022-09-14T00:31:21.628Z,71.18
2022-09-14T00:34:23.249Z,71.15
2022-09-14T00:37:24.975Z,71.19
2022-09-14T00:40:26.552Z,71.12
2022-09-14T00:43:28.105Z,71.03
2022-09-14T00:46:34.573Z,71.02
2022-09-14T00:49:39.703Z,71.04
2022-09-14T00:52:44.923Z,71.14
2022-09-14T00:55:46.540Z,71.23
2022-09-14T00:58:52.576Z,71.10
2022-09-14T01:01:54.986Z,71.11
2022-09-14T01:04:56.923Z,71.03
2022-09-14T01:08:29.044Z,71.03
2022-09-14T01:12:10.462Z,71.14
2022-09-14T01:15:20.541Z,71.11
2022-09-14T01:18:32.209Z,71.25
2022-09-14T01:21:37.616Z,71.27
2022-09-14T01:25:04.667Z,71.26
2022-09-14T01:28:22.438Z,71.35
2022-09-14T01:32:05.293Z,71.34
2022-09-14T01:35:34.634Z,71.21
2022-09-14T01:38:43.448Z,71.39
2022-09-14T01:41:46.917Z,71.58
2022-09-14T01:44:52.685Z,71.49
2022-09-14T01:48:00.186Z,71.46
2022-09-14T01:51:07.803Z,71.38
2022-09-14T01:54:20.066Z,71.33
2022-09-14T01:57:31.274Z,71.34
2022-09-14T02:00:34.062Z,71.24
2022-09-14T02:03:41.386Z,71.20
2022-09-14T02:06:46.893Z,71.27
2022-09-14T02:09:50.347Z,71.32
2022-09-14T02:12:55.131Z,71.21
2022-09-14T02:15:56.729Z,71.17
2022-09-14T02:19:01.161Z,71.20
2022-09-14T02:22:03.226Z,71.23
2022-09-14T02:25:05.245Z,71.29
2022-09-14T02:28:07.305Z,71.17
2022-09-14T02:31:27.188Z,71.22
2022-09-14T02:34:43.126Z,71.19
2022-09-14T02:37:56.842Z,71.28
2022-09-14T02:41:36.544Z,71.30
2022-09-14T02:45:03.909Z,71.35
2022-09-14T02:48:26.576Z,71.34
2022-09-14T02:51:48.869Z,71.31
2022-09-14T02:55:17.282Z,71.23
2022-09-14T02:58:18.789Z,71.19
2022-09-14T03:01:22.601Z,71.25
2022-09-14T03:04:24.167Z,71.32
2022-09-14T03:07:25.735Z,71.32
2022-09-14T03:10:27.885Z,71.33
2022-09-14T03:13:29.209Z,71.34
2022-09-14T03:16:31.194Z,71.31
2022-09-14T03:19:32.697Z,71.25
2022-09-14T03:22:34.258Z,71.32
2022-09-14T03:25:40.835Z,71.43
2022-09-14T03:28:42.831Z,71.37
2022-09-14T03:31:44.312Z,71.50
2022-09-14T03:34:45.823Z,71.56
2022-09-14T03:37:47.293Z,71.58
2022-09-14T03:40:48.864Z,71.61
2022-09-14T03:43:50.746Z,71.68
2022-09-14T03:46:52.375Z,71.72
2022-09-14T03:49:54.125Z,71.80
2022-09-14T03:52:55.790Z,71.81
2022-09-14T03:55:57.920Z,71.82
2022-09-14T03:58:59.413Z,71.84
2022-09-14T04:02:01.700Z,71.86
2022-09-14T04:05:03.456Z,71.86
2022-09-14T04:08:04.999Z,71.87
2022-09-14T04:11:13.979Z,71.99
2022-09-14T04:14:15.947Z,72.08
2022-09-14T04:17:17.727Z,72.28
2022-09-14T04:20:19.627Z,72.30
2022-09-14T04:23:21.181Z,72.26
2022-09-14T04:26:26.183Z,72.23
2022-09-14T04:29:29.837Z,72.42
2022-09-14T04:32:34.410Z,72.31
2022-09-14T04:35:37.157Z,72.60
2022-09-14T04:38:40.309Z,72.58
2022-09-14T04:41:42.325Z,72.58
2022-09-14T04:44:43.854Z,72.65
2022-09-14T04:47:45.509Z,72.91
2022-09-14T04:50:47.270Z,72.88
2022-09-14T04:53:51.096Z,72.97
2022-09-14T04:56:52.620Z,73.07
2022-09-14T04:59:54.110Z,73.16
2022-09-14T05:02:55.670Z,73.19
2022-09-14T05:06:14.638Z,73.29
2022-09-14T05:09:17.689Z,73.35
2022-09-14T05:12:19.150Z,73.41
2022-09-14T05:15:20.630Z,73.42
2022-09-14T05:18:22.133Z,73.60
2022-09-14T05:21:24.558Z,73.62
2022-09-14T05:24:26.237Z,73.70
2022-09-14T05:27:27.712Z,73.78
2022-09-14T05:30:29.284Z,73.92
2022-09-14T05:33:30.733Z,73.84
2022-09-14T05:36:32.230Z,73.98
2022-09-14T05:39:33.862Z,74.01
2022-09-14T05:42:35.405Z,73.95
2022-09-14T05:45:37.000Z,74.03
2022-09-14T05:48:39.868Z,73.79
2022-09-14T05:51:41.421Z,73.73
2022-09-14T05:54:42.865Z,73.54
2022-09-14T05:57:49.178Z,73.70
2022-09-14T06:00:50.595Z,73.69
2022-09-14T06:03:57.768Z,73.53
2022-09-14T06:07:17.323Z,73.44
2022-09-14T06:10:21.125Z,73.44
2022-09-14T06:13:22.866Z,73.48
2022-09-14T06:16:28.839Z,73.45
2022-09-14T06:19:30.380Z,73.60
2022-09-14T06:22:31.854Z,73.65
2022-09-14T06:25:33.271Z,73.91
2022-09-14T06:28:35.657Z,73.81
2022-09-14T06:31:37.534Z,73.75
2022-09-14T06:34:39.684Z,73.90
2022-09-14T06:37:41.149Z,73.93
2022-09-14T06:40:51.514Z,73.88
2022-09-14T06:43:56.158Z,73.70
2022-09-14T06:46:57.614Z,73.92
2022-09-14T06:49:59.800Z,74.70
2022-09-14T06:53:01.326Z,74.41
2022-09-14T06:56:03.006Z,74.90
2022-09-14T06:59:07.544Z,74.63
2022-09-14T07:02:11.638Z,74.43
2022-09-14T07:05:15.081Z,74.65
2022-09-14T07:08:16.661Z,74.42
2022-09-14T07:11:20.900Z,74.11
2022-09-14T07:14:22.512Z,74.21
2022-09-14T07:17:24.073Z,74.04
2022-09-14T07:20:25.701Z,73.56
2022-09-14T07:23:27.457Z,73.64
2022-09-14T07:26:38.874Z,73.59
2022-09-14T07:29:40.461Z,73.92
2022-09-14T07:32:41.940Z,73.84
2022-09-14T07:35:43.421Z,73.63
2022-09-14T07:38:53.215Z,73.11
2022-09-14T07:41:55.063Z,73.24
2022-09-14T07:44:56.565Z,73.31
2022-09-14T07:47:58.718Z,73.03
2022-09-14T07:51:04.251Z,72.92
2022-09-14T07:54:07.770Z,72.96
2022-09-14T07:57:10.681Z,73.01
2022-09-14T08:00:13.802Z,73.39
2022-09-14T08:03:15.842Z,73.12
2022-09-14T08:06:23.284Z,73.47
2022-09-14T08:09:25.679Z,73.76
2022-09-14T08:12:27.356Z,73.92
2022-09-14T08:15:28.930Z,74.01
2022-09-14T08:18:31.230Z,73.88
2022-09-14T08:21:35.028Z,74.31
2022-09-14T08:24:36.540Z,73.95
2022-09-14T08:27:39.075Z,73.94
2022-09-14T08:30:40.959Z,73.90
2022-09-14T08:33:45.842Z,73.76
2022-09-14T08:36:48.536Z,74.11
2022-09-14T08:39:51.787Z,74.26
2022-09-14T08:42:58.137Z,74.52
2022-09-14T08:46:04.125Z,74.29
2022-09-14T08:49:14.107Z,74.44
2022-09-14T08:52:35.311Z,74.03
2022-09-14T08:55:44.589Z,74.20
2022-09-14T08:59:16.791Z,74.52
2022-09-14T09:02:32.611Z,74.52
2022-09-14T09:05:51.209Z,73.89
2022-09-14T09:09:09.683Z,73.86
2022-09-14T09:12:19.921Z,73.11
2022-09-14T09:15:42.479Z,73.55
2022-09-14T09:18:48.814Z,73.34
2022-09-14T09:21:51.279Z,73.17
2022-09-14T09:24:54.450Z,73.55
2022-09-14T09:28:02.814Z,73.37
2022-09-14T09:31:10.230Z,73.19
2022-09-14T09:34:34.336Z,73.06
2022-09-14T09:37:45.975Z,73.00
2022-09-14T09:40:53.797Z,72.41
2022-09-14T09:44:08.786Z,72.82
2022-09-14T09:47:10.600Z,72.63
2022-09-14T09:50:24.510Z,72.63
2022-09-14T09:53:27.046Z,72.38
2022-09-14T09:56:32.780Z,72.23
2022-09-14T09:59:40.456Z,71.97
2022-09-14T10:02:42.075Z,71.89
2022-09-14T10:05:43.672Z,72.09
2022-09-14T10:08:46.974Z,72.21
2022-09-14T10:12:03.319Z,72.28
2022-09-14T10:15:32.382Z,72.36
2022-09-14T10:18:34.977Z,72.24
2022-09-14T10:22:04.997Z,72.19
2022-09-14T10:25:12.616Z,71.78
2022-09-14T10:28:24.252Z,71.30
2022-09-14T10:31:31.069Z,71.12
2022-09-14T10:34:33.209Z,70.86
2022-09-14T10:37:55.854Z,70.61
2022-09-14T10:41:14.793Z,71.09
2022-09-14T10:44:53.220Z,70.54
2022-09-14T10:48:28.412Z,70.33
2022-09-14T10:51:38.403Z,70.13
2022-09-14T10:55:24.876Z,70.79
2022-09-14T10:58:38.960Z,71.31
2022-09-14T11:02:00.878Z,70.71
2022-09-14T11:05:21.258Z,71.19
2022-09-14T11:08:34.846Z,70.44
2022-09-14T11:11:47.849Z,69.50
2022-09-14T11:15:04.210Z,69.05
2022-09-14T11:18:24.520Z,69.69
2022-09-14T11:21:36.022Z,70.07
2022-09-14T11:24:47.917Z,69.62
2022-09-14T11:28:19.060Z,69.14
2022-09-14T11:31:32.277Z,69.61
2022-09-14T11:34:40.578Z,69.27
2022-09-14T11:37:48.736Z,69.14
2022-09-14T11:41:02.261Z,69.05
2022-09-14T11:44:11.865Z,69.28
2022-09-14T11:47:19.646Z,69.38
2022-09-14T11:50:28.102Z,69.65
2022-09-14T11:53:32.119Z,69.84
2022-09-14T11:56:34.014Z,70.14
2022-09-14T11:59:49.717Z,70.49
2022-09-14T12:02:58.490Z,70.83
2022-09-14T12:06:35.055Z,70.86
2022-09-14T12:09:41.199Z,71.36
2022-09-14T12:12:46.674Z,71.51
2022-09-14T12:16:00.834Z,71.68
2022-09-14T12:19:03.155Z,71.98
2022-09-14T12:22:32.479Z,72.16
2022-09-14T12:25:34.596Z,72.60
2022-09-14T12:28:38.929Z,72.97
2022-09-14T12:31:43.787Z,72.84
2022-09-14T12:34:45.262Z,73.16
2022-09-14T12:37:46.765Z,73.40
2022-09-14T12:40:48.224Z,73.90
2022-09-14T12:43:50.075Z,74.18
2022-09-14T12:46:51.705Z,74.27
2022-09-14T12:49:58.001Z,74.15
2022-09-14T12:53:23.663Z,74.32
2022-09-14T12:56:40.379Z,74.71
2022-09-14T13:00:00.956Z,75.11
2022-09-14T13:03:22.438Z,75.02
2022-09-14T13:06:32.023Z,75.20
2022-09-14T13:09:33.998Z,75.46
2022-09-14T13:12:44.615Z,75.49
2022-09-14T13:15:55.351Z,75.62
2022-09-14T13:19:07.981Z,75.73
2022-09-14T13:22:20.433Z,76.09
2022-09-14T13:25:35.911Z,76.03
2022-09-14T13:28:38.459Z,76.15
2022-09-14T13:31:40.527Z,76.32
2022-09-14T13:34:43.403Z,76.29
2022-09-14T13:37:48.305Z,76.71
2022-09-14T13:40:54.711Z,76.98
2022-09-14T13:43:57.826Z,77.13
2022-09-14T13:47:02.759Z,77.21
2022-09-14T13:50:06.853Z,77.16
2022-09-14T13:53:48.153Z,77.11
2022-09-14T13:57:18.854Z,77.02
2022-09-14T14:00:20.974Z,77.12
2022-09-14T14:03:28.195Z,77.20
2022-09-14T14:06:32.188Z,77.37
2022-09-14T14:09:52.523Z,77.51
2022-09-14T14:12:55.108Z,77.50
2022-09-14T14:16:15.180Z,77.36
2022-09-14T14:19:28.158Z,77.37
2022-09-14T14:22:33.518Z,77.30
2022-09-14T14:25:42.145Z,77.37
2022-09-14T14:28:46.639Z,77.47
2022-09-14T14:31:48.560Z,77.47
2022-09-14T14:34:52.418Z,77.49
2022-09-14T14:37:54.600Z,77.13
2022-09-14T14:40:57.401Z,77.23
2022-09-14T14:43:59.012Z,77.43
2022-09-14T14:47:00.443Z,77.45
2022-09-14T14:50:03.618Z,77.51
2022-09-14T14:53:06.117Z,77.61
2022-09-14T14:56:11.380Z,77.40
2022-09-14T14:59:18.958Z,77.52
2022-09-14T15:02:20.436Z,77.71
2022-09-14T15:05:21.990Z,77.77
2022-09-14T15:08:23.526Z,77.84
2022-09-14T15:11:24.967Z,77.91
2022-09-14T15:14:27.452Z,78.11
2022-09-14T15:17:29.038Z,78.28
2022-09-14T15:20:30.498Z,78.31
2022-09-14T15:23:32.510Z,78.33
2022-09-14T15:26:34.620Z,78.39
2022-09-14T15:29:35.953Z,78.45
2022-09-14T15:32:39.719Z,78.33
2022-09-14T15:35:41.191Z,78.33
2022-09-14T15:38:42.655Z,78.41
2022-09-14T15:41:45.135Z,78.53
2022-09-14T15:44:46.869Z,78.66
2022-09-14T15:47:48.553Z,78.60
2022-09-14T15:50:50.040Z,78.49
2022-09-14T15:53:56.927Z,78.61
2022-09-14T15:56:59.485Z,78.63
2022-09-14T16:00:03.931Z,78.67
2022-09-14T16:03:15.191Z,78.69
2022-09-14T16:06:16.745Z,78.75
2022-09-14T16:09:21.924Z,78.82
2022-09-14T16:12:23.751Z,78.84
2022-09-14T16:15:25.461Z,78.90
2022-09-14T16:18:27.225Z,78.94
2022-09-14T16:21:29.440Z,78.96
2022-09-14T16:24:31.644Z,79.07
2022-09-14T16:27:33.258Z,79.15
2022-09-14T16:30:34.910Z,79.07
2022-09-14T16:33:42.535Z,78.89
2022-09-14T16:36:44.946Z,78.97
2022-09-14T16:39:47.534Z,78.97
2022-09-14T16:42:50.908Z,78.97
2022-09-14T16:46:03.220Z,79.06
2022-09-14T16:49:05.558Z,79.06
2022-09-14T16:52:07.421Z,78.99
2022-09-14T16:55:09.406Z,79.11
2022-09-14T16:58:12.055Z,79.17
2022-09-14T17:01:23.196Z,79.31
2022-09-14T17:04:25.158Z,79.37
2022-09-14T17:07:26.817Z,79.49
2022-09-14T17:10:32.669Z,79.59
2022-09-14T17:13:38.230Z,79.69
2022-09-14T17:16:40.129Z,79.77
2022-09-14T17:19:43.827Z,79.88
2022-09-14T17:22:46.923Z,79.82
2022-09-14T17:25:49.112Z,79.81
2022-09-14T17:28:53.598Z,79.89
2022-09-14T17:31:55.331Z,79.82
2022-09-14T17:34:57.121Z,79.77
2022-09-14T17:37:59.370Z,79.84
2022-09-14T17:41:08.435Z,79.88
2022-09-14T17:44:13.106Z,79.86
2022-09-14T17:47:17.269Z,79.80
2022-09-14T17:50:20.817Z,79.87
2022-09-14T17:53:22.772Z,79.95
2022-09-14T17:56:27.511Z,80.01
2022-09-14T17:59:29.556Z,80.10
2022-09-14T18:02:31.850Z,80.12
2022-09-14T18:05:33.983Z,80.15
2022-09-14T18:08:38.168Z,79.98
2022-09-14T18:11:40.306Z,79.95
2022-09-14T18:14:42.133Z,79.96
2022-09-14T18:17:45.769Z,79.92
2022-09-14T18:20:47.736Z,79.88
2022-09-14T18:23:51.112Z,79.91
2022-09-14T18:26:53.101Z,79.88
2022-09-14T18:29:55.070Z,79.91
2022-09-14T18:32:57.093Z,79.91
2022-09-14T18:35:59.523Z,79.97
2022-09-14T18:39:02.001Z,79.93
2022-09-14T18:42:04.157Z,79.88
2022-09-14T18:45:06.197Z,79.86
2022-09-14T18:48:08.246Z,79.85
2022-09-14T18:51:12.275Z,79.80
2022-09-14T18:54:14.708Z,79.80
2022-09-14T18:57:19.344Z,79.76
2022-09-14T19:00:21.623Z,79.73
2022-09-14T19:03:24.200Z,79.65
2022-09-14T19:06:26.431Z,79.64
2022-09-14T19:09:28.232Z,79.60
2022-09-14T19:12:31.131Z,79.60
2022-09-14T19:15:34.942Z,79.65
2022-09-14T19:18:37.737Z,79.54
2022-09-14T19:21:40.248Z,79.40
2022-09-14T19:24:43.506Z,79.38
2022-09-14T19:27:51.896Z,79.32
2022-09-14T19:30:54.818Z,79.24
2022-09-14T19:34:03.088Z,79.26
2022-09-14T19:37:05.286Z,79.22
2022-09-14T19:40:08.940Z,79.27
2022-09-14T19:43:11.336Z,79.21
2022-09-14T19:46:16.655Z,79.23
2022-09-14T19:49:24.481Z,79.36
2022-09-14T19:52:26.323Z,79.42
2022-09-14T19:55:28.128Z,79.47
2022-09-14T19:58:33.725Z,79.47
2022-09-14T20:01:38.693Z,79.55
2022-09-14T20:04:40.652Z,79.54
2022-09-14T20:07:44.881Z,79.43
2022-09-14T20:10:47.359Z,79.48
2022-09-14T20:13:52.439Z,79.56
2022-09-14T20:16:57.241Z,79.57
2022-09-14T20:19:58.731Z,79.70
2022-09-14T20:23:04.805Z,79.79
2022-09-14T20:26:09.019Z,79.90
2022-09-14T20:29:10.587Z,79.97
2022-09-14T20:32:19.569Z,80.06
2022-09-14T20:35:21.917Z,80.10
2022-09-14T20:38:23.865Z,80.26
2022-09-14T20:41:31.407Z,80.31
2022-09-14T20:44:37.047Z,80.29
2022-09-14T20:47:38.953Z,80.41
2022-09-14T20:50:50.353Z,80.44
2022-09-14T20:53:58.343Z,80.53
2022-09-14T20:57:04.233Z,80.64
2022-09-14T21:00:06.880Z,80.74
2022-09-14T21:03:17.670Z,80.81
2022-09-14T21:06:24.287Z,80.92
2022-09-14T21:09:26.594Z,81.00
2022-09-14T21:12:28.738Z,81.11
2022-09-14T21:15:34.339Z,81.15
2022-09-14T21:18:40.607Z,81.20
2022-09-14T21:21:43.071Z,81.28
2022-09-14T21:24:44.830Z,81.35
2022-09-14T21:27:49.011Z,81.46
2022-09-14T21:30:53.374Z,81.55
2022-09-14T21:33:58.934Z,81.57
2022-09-14T21:37:03.547Z,81.62
2022-09-14T21:40:05.915Z,81.62
2022-09-14T21:43:08.091Z,81.67
2022-09-14T21:46:10.963Z,81.72
2022-09-14T21:49:15.707Z,81.76
2022-09-14T21:52:17.367Z,81.77
2022-09-14T21:55:21.125Z,81.86
2022-09-14T21:58:22.868Z,81.92
2022-09-14T22:01:25.563Z,81.91
2022-09-14T22:04:27.153Z,81.96
2022-09-14T22:07:28.953Z,82.06
2022-09-14T22:10:30.467Z,82.08
2022-09-14T22:13:32.336Z,82.17
2022-09-14T22:16:36.325Z,82.19
2022-09-14T22:19:37.925Z,82.24
2022-09-14T22:22:42.153Z,82.28
2022-09-14T22:25:43.693Z,82.30
2022-09-14T22:28:47.493Z,82.32
2022-09-14T22:31:49.509Z,82.34
2022-09-14T22:34:51.110Z,82.42
2022-09-14T22:37:52.548Z,82.45
2022-09-14T22:40:55.380Z,82.45
2022-09-14T22:43:58.021Z,82.51
2022-09-14T22:46:59.570Z,82.57
2022-09-14T22:50:01.288Z,82.55
2022-09-14T22:53:02.841Z,82.62
2022-09-14T22:56:17.373Z,82.72
2022-09-14T22:59:18.846Z,82.79
2022-09-14T23:02:20.501Z,82.75
2022-09-14T23:05:22.071Z,82.74
2022-09-14T23:08:23.758Z,82.79
2022-09-14T23:11:25.569Z,82.80
2022-09-14T23:14:27.285Z,82.80
2022-09-14T23:17:28.768Z,82.77
2022-09-14T23:20:31.481Z,82.82
2022-09-14T23:23:33.192Z,82.92
2022-09-14T23:26:34.790Z,82.99
2022-09-14T23:29:36.258Z,83.04
2022-09-14T23:32:37.831Z,83.08
2022-09-14T23:35:39.289Z,83.17
2022-09-14T23:38:42.273Z,83.15
2022-09-14T23:41:43.710Z,83.22
2022-09-14T23:44:45.440Z,83.27
2022-09-14T23:47:47.039Z,83.33
2022-09-14T23:50:59.290Z,83.38
2022-09-14T23:54:00.765Z,83.42
2022-09-14T23:57:02.412Z,83.43
